Moriah, NY (12960)

1:37 PM EDT on September 03, 2015 (GMT -0400)
Moriah, NY 12960 | | Change Station
CLOSE
Current Station
Personal Weather Station
Location: Moriah, NY
Elevation: 895 ft
Nearby Weather Stations

Elev 895 ft 44.05 °N, 73.51 °W | Updated 15 seconds ago

Mostly Cloudy
Mostly Cloudy
78.9 °F
Feels Like 82 °F
N
8.0
Wind Variable Wind from East
Gusts 8.0 mph

Today
High -- | Low -- °F
--% Chance of Precip.
Yesterday
High -- | Low -- °F
Precip. -- in
6:19 AM 7:26 PM
Waning Gibbous, 68% visible
Pressure 29.90 in
Visibility 10.0 miles
Clouds Clear
Heat Index 82 °F
Dew Point 71 °F
Humidity 77%
Rainfall 0.00 in
Snow Depth Not available.
UV 9 out of 12
Pollen 7.70 out of 12
Air Quality Not available.
Flu Activity Not available.
METAR K6B0 031715Z AUTO 34008KT 10SM CLR 29/19 A2990 RMK AO2 T02890191
Pressure 29.90 in
Visibility 10.0 miles
Clouds Clear
Heat Index 82 °F
Dew Point 71 °F
Humidity 77%
Rainfall 0.00 in
Snow Depth Not available.
UV 9 out of 12
Pollen 7.70 out of 12
Air Quality Not available.
Flu Activity Not available.
METAR K6B0 031715Z AUTO 34008KT 10SM CLR 29/19 A2990 RMK AO2 T02890191

10-Day Weather Forecast

×

Almanac

Astronomy

Sep. 03, 2015 Rise Set
Actual Time
Civil Twilight
Nautical Twilight
Astronomical Twilight
Moon
Length of Visible Light
Length of Day
Tomorrow will be .
, % of the Moon is Illuminated

Today's Extremes

State Highs State Lows

Community

WunderPhotos

Upload Photos

1,851,991 photos uploaded!

WunderBlogs® & News

Nearby

Air Quality

  Air Quality AQ Index Pollutant
Not available.

Snow Depth

Station Depth Elevation

Earthquake Activity

City Distance Mag. Time & Date
Minimum magnitude displayed is 2.5.

Coastal Water Temperatures

Place Temperature

Stations

Nearby Weather Stations

Station Location Temp. Windchill Dew Point Humidity Wind Precip. Elev Updated Type